USRRUSHH

Guest
Details From USRR - Surgut
To USHH - Khanty Mansiysk
Flight Number -
Tags Generated
Created
Modified
Stats Distance 126 nm / 234 km
Max Altitude 0 ft / 0 m
Waypoints 2
Social Downloads 0
Likes 0
Share VATSIM

Download

Looking for another format? Having issues loading an existing format? Contact us
Advertisement - Login to hide

Notes

Generated

Route

USRR USHH

ID Type Via Altitude Latitude Longitude Leg Dist Tot Dist Heading (true) Name
O USRR APT - 0 ft / 0 m 61.34364˚ 73.37581˚ - 0 nm - -
O USHH APT - 0 ft / 0 m 61.02531˚ 69.06101˚ 126 nm 126 nm 263° / 259° -

Altitude Profile

Advertisement - Login to hide

USRR

Details ICAO USRR (SGC)
Name SURGUT
Region Russia
Timezone Asia/Yekaterinburg (UTC+5.0)
Stats Elevation 200 ft / 61 m (AMSL)
Location 61.343693° 73.401842°
Runways 1
Magnetic Variation 17.101° E

METAR

USRR 152000Z 22004MPS 7000 NSC M04/M06 Q1027 R25/390038 NOSIG RMK QFE765

Decode

TAF

TAF TAF USRR 151655Z 1518/1618 22005G11MPS 9999 BKN011 TEMPO 1518/1606 3100 -SHSN BKN005 BKN015CB

Decode

Departure Runways

ID Width Length Bearing (true) Bearing (mag) Surface Threshold Offset Overrun Length
07 148 ft / 45 m 9,112 ft / 2,778 m 89.72° 72.62° Asphalt 0 ft / 0 m 165 ft / 50 m
25 148 ft / 45 m 9,112 ft / 2,778 m 269.76° 252.66° Asphalt 0 ft / 0 m 165 ft / 50 m

USHH

Details ICAO USHH (HMA)
Name KHANTY MANSIYSK
Region Russia
Timezone Asia/Yekaterinburg (UTC+5.0)
Stats Elevation 141 ft / 43 m (AMSL)
Location 61.028482° 69.086067°
Runways 1
Magnetic Variation 17.770° E

METAR

USHH 152000Z 20004MPS 9999 FEW040 M04/M08 Q1027 R24/420537 NOSIG RMK QFE767

Decode

TAF

TAF USHH 151657Z 1518/1618 21006MPS 9999 BKN015 TEMPO 1518/1606 3100 -SHSN SCT005 BKN011CB

Decode

Destination Runways

ID Width Length Bearing (true) Bearing (mag) Surface Threshold Offset Overrun Length
06 148 ft / 45 m 9,154 ft / 2,790 m 75.33° 57.56° Asphalt 0 ft / 0 m 195 ft / 59 m
24 148 ft / 45 m 9,154 ft / 2,790 m 255.38° 237.61° Asphalt 0 ft / 0 m 195 ft / 59 m

Approach Navaids

Runway Type Ident Frequency Range Bearing (true) Bearing (mag) Slope Elevation
06 Localiser IBD 111.90 MHz 18 nm / 33 km 75.47° 57.70° - 141 ft / 43 m (AMSL)
06 Glidescope IBD 111.90 MHz 10 nm / 19 km 75.36° 57.58° 3.00° 141 ft / 43 m (AMSL)
24 Localiser IZJ 110.10 MHz 18 nm / 33 km 255.37° 237.60° - 141 ft / 43 m (AMSL)
24 Glidescope IZJ 110.10 MHz 10 nm / 19 km 255.35° 237.58° 3.00° 141 ft / 43 m (AMSL)

Popular Alternatives